createdAt,value
2023-05-01T00:00:35.934Z,0.20
2023-05-01T00:03:04.646Z,0.19
2023-05-01T00:05:33.115Z,0.21
2023-05-01T00:08:01.697Z,0.20
2023-05-01T00:10:30.408Z,0.19
2023-05-01T00:12:58.930Z,0.20
2023-05-01T00:15:27.478Z,0.19
2023-05-01T00:17:57.447Z,0.13
2023-05-01T00:20:28.588Z,0.13
2023-05-01T00:22:57.968Z,0.09
2023-05-01T00:25:26.619Z,0.08
2023-05-01T00:27:55.164Z,0.00
2023-05-01T00:30:23.717Z,-0.08
2023-05-01T00:32:52.160Z,-0.13
2023-05-01T00:35:22.172Z,-0.18
2023-05-01T00:37:50.905Z,-0.17
2023-05-01T00:40:19.443Z,-0.20
2023-05-01T00:42:47.931Z,-0.17
2023-05-01T00:45:16.392Z,-0.21
2023-05-01T00:47:44.939Z,-0.20
2023-05-01T00:50:14.013Z,-0.23
2023-05-01T00:52:44.182Z,-0.25
2023-05-01T00:55:12.983Z,-0.24
2023-05-01T00:57:41.679Z,-0.29
2023-05-01T01:00:12.613Z,-0.30
2023-05-01T01:02:41.385Z,-0.30
2023-05-01T01:05:10.077Z,-0.32
2023-05-01T01:07:47.957Z,-0.35
2023-05-01T01:10:24.940Z,-0.34
2023-05-01T01:13:00.135Z,-0.31
2023-05-01T01:15:35.442Z,-0.34
2023-05-01T01:18:11.594Z,-0.32
2023-05-01T01:20:46.745Z,-0.34
2023-05-01T01:23:54.728Z,-0.43
2023-05-01T01:26:40.650Z,-0.41
2023-05-01T01:29:45.363Z,-0.45
2023-05-01T01:32:39.424Z,-0.46
2023-05-01T01:35:14.579Z,-0.48
2023-05-01T01:37:49.861Z,-0.51
2023-05-01T01:40:21.768Z,-0.54
2023-05-01T01:42:56.809Z,-0.55
2023-05-01T01:45:31.496Z,-0.55
2023-05-01T01:48:01.393Z,-0.60
2023-05-01T01:50:33.576Z,-0.61
2023-05-01T01:53:03.720Z,-0.64
2023-05-01T01:55:35.210Z,-0.67
2023-05-01T01:58:05.350Z,-0.68
2023-05-01T02:00:35.964Z,-0.68
2023-05-01T02:03:06.116Z,-0.69
2023-05-01T02:05:37.634Z,-0.72
2023-05-01T02:08:07.668Z,-0.73
2023-05-01T02:10:37.798Z,-0.73
2023-05-01T02:13:07.524Z,-0.75
2023-05-01T02:15:36.483Z,-0.81
2023-05-01T02:18:06.711Z,-0.83
2023-05-01T02:20:39.061Z,-0.83
2023-05-01T02:23:09.258Z,-0.83
2023-05-01T02:25:41.326Z,-0.77
2023-05-01T02:28:14.190Z,-0.76
2023-05-01T02:30:42.829Z,-0.72
2023-05-01T02:33:11.375Z,-0.81
2023-05-01T02:35:43.086Z,-0.90
2023-05-01T02:38:13.081Z,-0.81
2023-05-01T02:40:44.042Z,-0.78
2023-05-01T02:43:15.408Z,-0.78
2023-05-01T02:45:46.318Z,-0.77
2023-05-01T02:48:17.679Z,-0.81
2023-05-01T02:50:48.950Z,-0.76
2023-05-01T02:53:18.849Z,-0.76
2023-05-01T02:56:04.841Z,-0.74
2023-05-01T02:58:34.030Z,-0.70
2023-05-01T03:01:02.806Z,-0.72
2023-05-01T03:03:31.809Z,-0.69
2023-05-01T03:06:03.394Z,-0.63
2023-05-01T03:08:32.208Z,-0.61
2023-05-01T03:11:00.689Z,-0.56
2023-05-01T03:13:29.366Z,-0.52
2023-05-01T03:15:58.546Z,-0.49
2023-05-01T03:18:27.206Z,-0.46
2023-05-01T03:20:57.175Z,-0.43
2023-05-01T03:23:29.065Z,-0.43
2023-05-01T03:25:57.778Z,-0.35
2023-05-01T03:28:26.934Z,-0.31
2023-05-01T03:30:55.775Z,-0.26
2023-05-01T03:33:24.553Z,-0.22
2023-05-01T03:36:02.326Z,-0.16
2023-05-01T03:38:32.923Z,-0.10
2023-05-01T03:41:13.460Z,-0.10
2023-05-01T03:44:00.937Z,-0.01
2023-05-01T03:46:36.767Z,0.04
2023-05-01T03:49:07.729Z,0.12
2023-05-01T03:51:43.430Z,0.16
2023-05-01T03:54:13.631Z,0.20
2023-05-01T03:57:14.952Z,0.31
2023-05-01T03:59:44.821Z,0.40
2023-05-01T04:02:14.250Z,0.48
2023-05-01T04:04:43.625Z,0.53
2023-05-01T04:07:12.447Z,0.57
2023-05-01T04:09:42.619Z,0.67
2023-05-01T04:12:11.417Z,0.74
2023-05-01T04:14:39.899Z,0.79
2023-05-01T04:17:08.565Z,0.89
2023-05-01T04:19:38.894Z,0.95
2023-05-01T04:22:07.870Z,1.03
2023-05-01T04:24:39.757Z,1.12
2023-05-01T04:27:10.021Z,1.27
2023-05-01T04:29:38.692Z,1.35
2023-05-01T04:32:07.573Z,1.52
2023-05-01T04:34:37.072Z,1.61
2023-05-01T04:37:08.000Z,1.75
2023-05-01T04:39:37.057Z,1.88
2023-05-01T04:42:06.353Z,1.97
2023-05-01T04:44:37.471Z,2.01
2023-05-01T04:47:07.279Z,2.15
2023-05-01T04:49:37.390Z,2.29
2023-05-01T04:52:06.270Z,2.41
2023-05-01T04:54:49.032Z,2.53
2023-05-01T04:57:17.831Z,2.69
2023-05-01T04:59:48.580Z,2.78
2023-05-01T05:02:17.255Z,2.87
2023-05-01T05:04:45.773Z,2.97
2023-05-01T05:07:14.617Z,3.10
2023-05-01T05:10:03.385Z,3.16
2023-05-01T05:12:38.956Z,3.23
2023-05-01T05:15:10.598Z,3.34
2023-05-01T05:17:39.199Z,3.43
2023-05-01T05:20:09.513Z,3.46
2023-05-01T05:22:38.879Z,3.52
2023-05-01T05:25:23.934Z,3.63
2023-05-01T05:27:52.766Z,3.75
2023-05-01T05:30:22.696Z,3.82
2023-05-01T05:32:51.562Z,3.93
2023-05-01T05:35:22.242Z,4.02
2023-05-01T05:37:51.809Z,4.12
2023-05-01T05:40:20.814Z,4.17
2023-05-01T05:42:58.473Z,4.29
2023-05-01T05:45:31.518Z,4.42
2023-05-01T05:48:00.297Z,4.53
2023-05-01T05:50:30.727Z,4.62
2023-05-01T05:53:00.301Z,4.76
2023-05-01T05:55:29.437Z,4.84
2023-05-01T05:58:03.498Z,4.92
2023-05-01T06:00:34.110Z,5.11
2023-05-01T06:03:07.337Z,5.34
2023-05-01T06:05:37.453Z,5.43
2023-05-01T06:08:06.690Z,5.53
2023-05-01T06:10:35.356Z,5.65
2023-05-01T06:13:03.836Z,5.68
2023-05-01T06:15:38.063Z,5.66
2023-05-01T06:18:07.262Z,5.60
2023-05-01T06:20:36.385Z,5.79
2023-05-01T06:23:08.679Z,5.78
2023-05-01T06:25:50.349Z,5.92
2023-05-01T06:28:18.921Z,5.97
2023-05-01T06:30:49.698Z,6.18
2023-05-01T06:33:20.480Z,6.28
2023-05-01T06:36:00.100Z,6.40
2023-05-01T06:38:28.955Z,6.62
2023-05-01T06:40:58.049Z,6.75
2023-05-01T06:43:30.668Z,6.88
2023-05-01T06:46:00.829Z,6.91
2023-05-01T06:48:29.408Z,6.98
2023-05-01T06:50:58.109Z,6.90
2023-05-01T06:53:26.502Z,7.05
2023-05-01T06:55:55.166Z,7.17
2023-05-01T06:58:24.562Z,7.36
2023-05-01T07:00:55.158Z,7.30
2023-05-01T07:03:27.872Z,7.43
2023-05-01T07:05:56.905Z,7.43
2023-05-01T07:08:25.708Z,7.55
2023-05-01T07:10:54.366Z,7.51
2023-05-01T07:13:23.059Z,7.63
2023-05-01T07:15:53.792Z,7.85
2023-05-01T07:18:24.663Z,7.83
2023-05-01T07:20:53.124Z,7.87
2023-05-01T07:23:23.765Z,7.92
2023-05-01T07:25:52.433Z,7.91
2023-05-01T07:28:22.067Z,7.99
2023-05-01T07:30:50.902Z,7.95
2023-05-01T07:33:19.502Z,8.06
2023-05-01T07:35:49.789Z,8.12
2023-05-01T07:38:18.660Z,8.13
2023-05-01T07:40:47.399Z,8.11
2023-05-01T07:43:16.122Z,8.16
2023-05-01T07:45:56.850Z,8.17
2023-05-01T07:48:25.689Z,8.27
2023-05-01T07:50:56.821Z,8.38
2023-05-01T07:53:25.684Z,8.51
2023-05-01T07:55:54.194Z,8.46
2023-05-01T07:58:22.724Z,8.44
2023-05-01T08:00:51.285Z,8.58
2023-05-01T08:03:20.066Z,8.79
2023-05-01T08:05:48.763Z,8.98
2023-05-01T08:08:21.541Z,9.01
2023-05-01T08:10:50.297Z,9.05
2023-05-01T08:13:18.778Z,8.83
2023-05-01T08:15:48.188Z,8.58
2023-05-01T08:18:21.252Z,8.83
2023-05-01T08:20:50.701Z,8.80
2023-05-01T08:23:20.873Z,9.06
2023-05-01T08:25:51.797Z,8.91
2023-05-01T08:28:21.614Z,8.62
2023-05-01T08:30:50.717Z,8.48
2023-05-01T08:33:19.706Z,8.72
2023-05-01T08:35:48.726Z,9.08
2023-05-01T08:38:17.482Z,9.25
2023-05-01T08:40:53.829Z,8.95
2023-05-01T08:43:22.940Z,8.82
2023-05-01T08:45:52.669Z,8.92
2023-05-01T08:48:22.446Z,9.00
2023-05-01T08:50:52.381Z,8.69
2023-05-01T08:53:23.574Z,8.48
2023-05-01T08:55:53.574Z,8.50
2023-05-01T08:58:23.379Z,8.51
2023-05-01T09:00:52.445Z,8.69
2023-05-01T09:03:22.917Z,8.47
2023-05-01T09:05:52.589Z,8.33
2023-05-01T09:08:21.420Z,8.22
2023-05-01T09:10:50.858Z,8.57
2023-05-01T09:13:21.177Z,9.14
2023-05-01T09:15:50.076Z,9.35
2023-05-01T09:18:18.758Z,9.62
2023-05-01T09:20:47.465Z,9.89
2023-05-01T09:23:16.246Z,10.19
2023-05-01T09:25:45.389Z,10.03
2023-05-01T09:28:13.989Z,9.62
2023-05-01T09:30:44.266Z,9.05
2023-05-01T09:33:14.332Z,8.88
2023-05-01T09:35:57.276Z,9.68
2023-05-01T09:38:27.239Z,9.86
2023-05-01T09:40:58.526Z,9.67
2023-05-01T09:43:28.586Z,9.59
2023-05-01T09:46:07.026Z,9.94
2023-05-01T09:48:36.318Z,10.31
2023-05-01T09:51:23.152Z,10.40
2023-05-01T09:53:52.606Z,10.52
2023-05-01T09:56:22.096Z,10.45
2023-05-01T09:58:52.575Z,10.67
2023-05-01T10:01:40.012Z,10.31
2023-05-01T10:04:10.280Z,9.90
2023-05-01T10:06:39.663Z,10.23
2023-05-01T10:09:16.942Z,10.01
2023-05-01T10:11:52.750Z,9.96
2023-05-01T10:14:24.214Z,9.92
2023-05-01T10:16:54.966Z,10.13
2023-05-01T10:19:23.763Z,10.51
2023-05-01T10:21:52.920Z,10.46
2023-05-01T10:24:21.473Z,10.58
2023-05-01T10:26:50.420Z,10.43
2023-05-01T10:29:23.538Z,10.62
2023-05-01T10:31:53.636Z,10.80
2023-05-01T10:34:26.396Z,10.93
2023-05-01T10:37:00.262Z,10.90
2023-05-01T10:39:32.847Z,11.07
2023-05-01T10:42:11.533Z,10.71
2023-05-01T10:44:40.519Z,10.71
2023-05-01T10:47:47.935Z,10.78
2023-05-01T10:50:16.857Z,10.91
2023-05-01T10:53:17.709Z,10.92
2023-05-01T10:55:47.376Z,10.98
2023-05-01T10:58:52.042Z,11.02
2023-05-01T11:01:34.688Z,11.31
2023-05-01T11:04:08.453Z,11.23
2023-05-01T11:06:38.602Z,11.00
2023-05-01T11:09:38.316Z,10.83
2023-05-01T11:12:07.683Z,10.22
2023-05-01T11:15:08.481Z,10.58
2023-05-01T11:17:51.219Z,11.07
2023-05-01T11:20:50.231Z,11.15
2023-05-01T11:23:20.069Z,10.90
2023-05-01T11:25:51.088Z,10.96
2023-05-01T11:28:24.572Z,10.89
2023-05-01T11:30:53.298Z,10.85
2023-05-01T11:33:29.228Z,10.90
2023-05-01T11:36:05.384Z,11.01
2023-05-01T11:38:34.025Z,11.04
2023-05-01T11:41:04.550Z,10.82
2023-05-01T11:43:33.600Z,10.41
2023-05-01T11:46:05.143Z,10.28
2023-05-01T11:48:34.330Z,10.38
2023-05-01T11:51:13.196Z,10.29
2023-05-01T11:53:41.825Z,10.79
2023-05-01T11:56:26.443Z,11.24
2023-05-01T11:58:55.764Z,11.59
2023-05-01T12:01:34.886Z,11.89
2023-05-01T12:04:03.807Z,11.68
2023-05-01T12:06:44.112Z,11.93
2023-05-01T12:09:17.111Z,11.99
2023-05-01T12:11:46.645Z,11.91
2023-05-01T12:14:16.664Z,11.92
2023-05-01T12:16:45.874Z,11.62
2023-05-01T12:19:15.750Z,11.82
2023-05-01T12:21:45.950Z,11.23
2023-05-01T12:24:16.329Z,10.71
2023-05-01T12:26:45.683Z,10.69
2023-05-01T12:29:14.393Z,10.59
2023-05-01T12:31:48.713Z,10.93
2023-05-01T12:34:17.387Z,11.11
2023-05-01T12:36:55.195Z,11.02
2023-05-01T12:39:24.742Z,11.11
2023-05-01T12:41:54.792Z,11.19
2023-05-01T12:44:25.007Z,10.97
2023-05-01T12:47:00.759Z,10.81
2023-05-01T12:49:31.343Z,10.88
2023-05-01T12:52:03.767Z,11.01
2023-05-01T12:54:34.535Z,11.07
2023-05-01T12:57:10.907Z,10.96
2023-05-01T12:59:41.186Z,10.90
2023-05-01T13:02:12.725Z,10.95
2023-05-01T13:04:41.945Z,11.04
2023-05-01T13:07:16.249Z,11.10
2023-05-01T13:09:53.883Z,11.12
2023-05-01T13:12:23.103Z,11.01
2023-05-01T13:14:52.109Z,10.81
2023-05-01T13:17:25.819Z,10.79
2023-05-01T13:19:56.143Z,10.85
2023-05-01T13:22:36.129Z,10.93
2023-05-01T13:25:06.567Z,10.95
2023-05-01T13:27:35.159Z,10.95
2023-05-01T13:30:04.019Z,10.84
2023-05-01T13:32:33.509Z,10.86
2023-05-01T13:35:03.368Z,10.73
2023-05-01T13:37:32.665Z,10.78
2023-05-01T13:40:03.729Z,10.82
2023-05-01T13:42:33.032Z,10.85
2023-05-01T13:45:05.888Z,10.79
2023-05-01T13:47:34.687Z,10.89
2023-05-01T13:50:03.388Z,10.80
2023-05-01T13:52:32.537Z,10.72
2023-05-01T13:55:04.949Z,10.68
2023-05-01T13:57:34.403Z,10.58
2023-05-01T14:00:02.961Z,10.54
2023-05-01T14:02:45.559Z,10.45
2023-05-01T14:05:14.542Z,10.46
2023-05-01T14:07:48.801Z,10.40
2023-05-01T14:10:19.225Z,10.33
2023-05-01T14:12:47.696Z,10.29
2023-05-01T14:15:17.184Z,10.24
2023-05-01T14:17:46.817Z,10.24
2023-05-01T14:20:17.278Z,10.18
2023-05-01T14:22:47.153Z,10.07
2023-05-01T14:25:25.299Z,9.95
2023-05-01T14:27:55.207Z,9.88
2023-05-01T14:30:29.131Z,9.73
2023-05-01T14:32:58.238Z,9.72
2023-05-01T14:35:26.758Z,9.75
2023-05-01T14:37:55.280Z,9.78
2023-05-01T14:40:27.823Z,9.79
2023-05-01T14:42:56.503Z,9.88
2023-05-01T14:45:25.043Z,9.86
2023-05-01T14:47:53.762Z,9.91
2023-05-01T14:50:24.776Z,9.83
2023-05-01T14:52:56.609Z,9.84
2023-05-01T14:55:28.439Z,9.81
2023-05-01T14:57:58.007Z,9.77
2023-05-01T15:00:26.931Z,9.66
2023-05-01T15:02:56.203Z,9.64
2023-05-01T15:05:26.283Z,9.65
2023-05-01T15:07:56.519Z,9.51
2023-05-01T15:10:26.874Z,9.54
2023-05-01T15:12:55.486Z,9.50
2023-05-01T15:15:24.010Z,9.46
2023-05-01T15:17:54.325Z,9.34
2023-05-01T15:20:22.898Z,9.17
2023-05-01T15:22:51.530Z,9.03
2023-05-01T15:25:20.293Z,8.95
2023-05-01T15:27:51.627Z,8.89
2023-05-01T15:30:20.463Z,8.88
2023-05-01T15:32:49.810Z,8.71
2023-05-01T15:35:19.082Z,8.69
2023-05-01T15:37:47.805Z,8.61
2023-05-01T15:40:16.522Z,8.54
2023-05-01T15:42:45.694Z,8.53
2023-05-01T15:45:16.063Z,8.52
2023-05-01T15:47:45.086Z,8.46
2023-05-01T15:50:13.865Z,8.37
2023-05-01T15:52:42.666Z,8.32
2023-05-01T15:55:11.384Z,8.36
2023-05-01T15:57:39.993Z,8.38
2023-05-01T16:00:10.747Z,8.31
2023-05-01T16:02:41.078Z,8.35
2023-05-01T16:05:10.349Z,8.30
2023-05-01T16:07:40.525Z,8.27
2023-05-01T16:10:10.730Z,8.25
2023-05-01T16:12:39.393Z,8.21
2023-05-01T16:15:08.923Z,8.22
2023-05-01T16:17:45.459Z,8.26
2023-05-01T16:20:17.296Z,8.23
2023-05-01T16:22:45.822Z,8.29
2023-05-01T16:25:15.295Z,8.27
2023-05-01T16:27:46.363Z,8.28
2023-05-01T16:30:15.697Z,8.28
2023-05-01T16:32:46.367Z,8.30
2023-05-01T16:35:18.742Z,8.31
2023-05-01T16:37:47.380Z,8.31
2023-05-01T16:40:18.363Z,8.25
2023-05-01T16:42:51.039Z,8.26
2023-05-01T16:45:19.880Z,8.26
2023-05-01T16:47:50.009Z,8.26
2023-05-01T16:50:19.025Z,8.20
2023-05-01T16:52:47.489Z,8.24
2023-05-01T16:55:16.308Z,8.21
2023-05-01T16:57:45.167Z,8.20
2023-05-01T17:00:15.346Z,8.17
2023-05-01T17:02:45.062Z,8.15
2023-05-01T17:05:15.172Z,8.13
2023-05-01T17:07:43.814Z,8.13
2023-05-01T17:10:12.791Z,8.08
2023-05-01T17:12:41.524Z,8.03
2023-05-01T17:15:11.078Z,8.05
2023-05-01T17:17:39.642Z,8.04
2023-05-01T17:20:09.557Z,7.98
2023-05-01T17:22:39.526Z,7.94
2023-05-01T17:25:09.576Z,8.03
2023-05-01T17:27:39.059Z,7.98
2023-05-01T17:30:08.995Z,8.01
2023-05-01T17:32:37.941Z,8.00
2023-05-01T17:35:07.559Z,7.90
2023-05-01T17:37:39.971Z,7.91
2023-05-01T17:40:12.472Z,7.95
2023-05-01T17:42:42.050Z,7.97
2023-05-01T17:45:11.470Z,7.97
2023-05-01T17:47:45.278Z,7.99
2023-05-01T17:50:15.141Z,7.89
2023-05-01T17:52:45.484Z,7.92
2023-05-01T17:55:18.021Z,7.97
2023-05-01T17:57:47.791Z,8.02
2023-05-01T18:00:17.154Z,8.07
2023-05-01T18:02:47.768Z,8.26
2023-05-01T18:05:19.615Z,8.31
2023-05-01T18:07:48.432Z,8.34
2023-05-01T18:10:18.369Z,8.13
2023-05-01T18:12:50.112Z,8.12
2023-05-01T18:15:22.919Z,8.17
2023-05-01T18:17:51.682Z,7.87
2023-05-01T18:20:20.379Z,7.92
2023-05-01T18:22:48.877Z,7.76
2023-05-01T18:25:20.248Z,7.64
2023-05-01T18:27:49.373Z,7.47
2023-05-01T18:30:18.277Z,7.45
2023-05-01T18:32:48.688Z,7.41
2023-05-01T18:35:19.146Z,7.37
2023-05-01T18:37:47.974Z,7.39
2023-05-01T18:40:16.644Z,7.32
2023-05-01T18:42:46.705Z,7.28
2023-05-01T18:45:15.248Z,7.25
2023-05-01T18:47:43.867Z,7.22
2023-05-01T18:50:13.339Z,7.17
2023-05-01T18:52:43.160Z,7.14
2023-05-01T18:55:12.484Z,7.08
2023-05-01T18:57:43.989Z,7.09
2023-05-01T19:00:16.852Z,7.03
2023-05-01T19:02:51.835Z,7.05
2023-05-01T19:18:20.289Z,6.90
2023-05-01T19:20:49.007Z,6.87
2023-05-01T19:23:17.608Z,6.87
2023-05-01T19:25:46.170Z,6.85
2023-05-01T19:28:17.430Z,6.84
2023-05-01T19:30:46.100Z,6.82
2023-05-01T19:33:14.666Z,6.77
2023-05-01T19:35:45.035Z,6.67
2023-05-01T19:38:13.686Z,6.61
2023-05-01T19:40:42.586Z,6.58
2023-05-01T19:43:11.246Z,6.52
2023-05-01T19:45:39.796Z,6.49
2023-05-01T19:48:08.697Z,6.55
2023-05-01T19:50:37.362Z,6.63
2023-05-01T19:53:07.550Z,6.77
2023-05-01T19:55:36.015Z,6.56
2023-05-01T19:58:05.752Z,6.43
2023-05-01T20:00:34.343Z,6.25
2023-05-01T20:03:03.089Z,6.24
2023-05-01T20:05:33.294Z,6.13
2023-05-01T20:08:02.258Z,6.29
2023-05-01T20:10:32.494Z,6.47
2023-05-01T20:13:01.950Z,6.51
2023-05-01T20:15:30.520Z,6.61
2023-05-01T20:17:59.080Z,6.24
2023-05-01T20:20:27.741Z,5.69
2023-05-01T20:23:10.753Z,5.45
2023-05-01T20:25:41.121Z,5.22
2023-05-01T20:28:10.566Z,5.31
2023-05-01T20:30:40.502Z,5.45
2023-05-01T20:33:09.471Z,5.34
2023-05-01T20:35:38.820Z,5.40
2023-05-01T20:38:07.674Z,5.23
2023-05-01T20:40:40.350Z,5.16
2023-05-01T20:43:11.502Z,5.41
2023-05-01T20:45:39.911Z,5.43
2023-05-01T20:48:08.730Z,5.29
2023-05-01T20:50:37.462Z,5.11
2023-05-01T20:53:06.132Z,5.40
2023-05-01T20:55:34.809Z,5.66
2023-05-01T20:58:04.937Z,5.76
2023-05-01T21:00:35.195Z,5.98
2023-05-01T21:03:03.969Z,6.01
2023-05-01T21:05:32.684Z,6.02
2023-05-01T21:08:01.342Z,6.05
2023-05-01T21:10:29.785Z,6.06
2023-05-01T21:12:58.780Z,6.08
2023-05-01T21:15:27.748Z,6.10
2023-05-01T21:17:58.004Z,6.15
2023-05-01T21:20:34.649Z,6.05
2023-05-01T21:23:04.705Z,6.12
2023-05-01T21:25:33.361Z,6.04
2023-05-01T21:28:03.771Z,5.90
2023-05-01T21:30:34.439Z,5.77
2023-05-01T21:33:07.178Z,5.77
2023-05-01T21:35:36.065Z,5.89
2023-05-01T21:38:05.654Z,5.84
2023-05-01T21:40:38.444Z,5.76
2023-05-01T21:43:07.878Z,5.74
2023-05-01T21:45:40.646Z,5.75
2023-05-01T21:48:11.501Z,5.51
2023-05-01T21:50:40.220Z,5.51
2023-05-01T21:53:08.951Z,5.31
2023-05-01T21:55:37.859Z,5.25
2023-05-01T21:58:06.501Z,4.83
2023-05-01T22:00:35.346Z,4.55
2023-05-01T22:03:08.545Z,4.63
2023-05-01T22:05:41.191Z,4.47
2023-05-01T22:08:09.777Z,4.46
2023-05-01T22:10:38.382Z,4.73
2023-05-01T22:13:07.155Z,4.78
2023-05-01T22:15:35.820Z,4.91
2023-05-01T22:18:05.141Z,5.09
2023-05-01T22:20:33.676Z,4.99
2023-05-01T22:23:03.785Z,5.13
2023-05-01T22:25:32.319Z,5.21
2023-05-01T22:28:01.510Z,5.20
2023-05-01T22:30:30.294Z,5.24
2023-05-01T22:32:58.933Z,5.20
2023-05-01T22:35:27.440Z,5.11
2023-05-01T22:37:56.034Z,5.09
2023-05-01T22:40:26.473Z,5.24
2023-05-01T22:42:55.014Z,5.32
2023-05-01T22:45:23.487Z,5.33
2023-05-01T22:47:52.059Z,5.28
2023-05-01T22:50:20.550Z,5.25
2023-05-01T22:52:49.135Z,5.24
2023-05-01T22:55:17.894Z,5.15
2023-05-01T22:57:48.019Z,5.10
2023-05-01T23:00:17.068Z,5.01
2023-05-01T23:02:45.654Z,4.94
2023-05-01T23:05:14.254Z,4.96
2023-05-01T23:07:42.903Z,4.89
2023-05-01T23:10:12.536Z,4.86
2023-05-01T23:12:43.635Z,4.86
2023-05-01T23:15:17.274Z,4.88
2023-05-01T23:17:45.913Z,4.77
2023-05-01T23:20:19.421Z,4.77
2023-05-01T23:22:48.826Z,4.75
2023-05-01T23:25:23.068Z,4.81
2023-05-01T23:27:53.320Z,4.75
2023-05-01T23:30:24.347Z,4.73
2023-05-01T23:32:53.181Z,4.73
2023-05-01T23:35:24.516Z,4.75
2023-05-01T23:37:54.094Z,4.74
2023-05-01T23:40:22.706Z,4.64
2023-05-01T23:42:51.473Z,4.62
2023-05-01T23:45:20.221Z,4.62
2023-05-01T23:47:50.244Z,4.63
2023-05-01T23:50:19.050Z,4.65
2023-05-01T23:52:47.792Z,4.62
2023-05-01T23:55:16.241Z,4.63
2023-05-01T23:57:45.115Z,4.76
